createdAt,value
2018-04-10T00:02:05.382Z,98798.93
2018-04-10T00:04:32.938Z,98801.67
2018-04-10T00:07:00.427Z,98801.47
2018-04-10T00:09:28.169Z,98805.52
2018-04-10T00:11:55.650Z,98803.06
2018-04-10T00:14:23.200Z,98794.39
2018-04-10T00:16:51.493Z,98788.67
2018-04-10T00:19:19.093Z,98785.27
2018-04-10T00:21:46.644Z,98791.38
2018-04-10T00:24:14.169Z,98789.84
2018-04-10T00:26:41.798Z,98795.02
2018-04-10T00:29:09.402Z,98789.26
2018-04-10T00:31:36.883Z,98795.57
2018-04-10T00:34:04.399Z,98796.25
2018-04-10T00:36:31.929Z,98802.59
2018-04-10T00:38:59.473Z,98804.01
2018-04-10T00:41:27.017Z,98801.18
2018-04-10T00:43:54.553Z,98801.96
2018-04-10T00:46:22.039Z,98811.71
2018-04-10T00:48:49.598Z,98803.48
2018-04-10T00:51:17.146Z,98797.78
2018-04-10T00:53:44.654Z,98796.17
2018-04-10T00:56:12.160Z,98790.91
2018-04-10T00:58:39.885Z,98797.95
2018-04-10T01:01:07.470Z,98795.78
2018-04-10T01:03:34.991Z,98793.52
2018-04-10T01:06:03.427Z,98797.86
2018-04-10T01:08:30.957Z,98798.03
2018-04-10T01:10:58.454Z,98790.50
2018-04-10T01:13:25.949Z,98789.41
2018-04-10T01:15:53.462Z,98789.16
2018-04-10T01:18:20.986Z,98786.47
2018-04-10T01:20:48.502Z,98784.88
2018-04-10T01:23:16.029Z,98786.73
2018-04-10T01:25:43.541Z,98790.69
2018-04-10T01:28:11.125Z,98787.05
2018-04-10T01:30:39.273Z,98790.73
2018-04-10T01:33:06.869Z,98781.70
2018-04-10T01:35:34.389Z,98783.35
2018-04-10T01:38:01.945Z,98775.31
2018-04-10T01:40:29.468Z,98782.18
2018-04-10T01:42:56.966Z,98783.04
2018-04-10T01:45:24.464Z,98779.05
2018-04-10T01:47:51.944Z,98788.44
2018-04-10T01:50:19.448Z,98785.81
2018-04-10T01:52:46.974Z,98782.09
2018-04-10T01:55:14.542Z,98781.20
2018-04-10T01:57:42.146Z,98780.43
2018-04-10T02:00:09.673Z,98783.19
2018-04-10T02:02:37.188Z,98794.33
2018-04-10T02:05:04.725Z,98786.02
2018-04-10T02:07:32.216Z,98797.02
2018-04-10T02:09:59.716Z,98789.46
2018-04-10T02:12:27.202Z,98791.12
2018-04-10T02:14:54.709Z,98789.74
2018-04-10T02:17:22.197Z,98790.91
2018-04-10T02:19:49.714Z,98790.55
2018-04-10T02:22:17.227Z,98792.30
2018-04-10T02:24:44.874Z,98793.91
2018-04-10T02:27:12.405Z,98785.56
2018-04-10T02:29:39.889Z,98793.86
2018-04-10T02:32:07.426Z,98787.70
2018-04-10T02:34:35.195Z,98782.89
2018-04-10T02:37:02.790Z,98780.18
2018-04-10T02:39:30.400Z,98767.63
2018-04-10T02:41:57.929Z,98772.30
2018-04-10T02:44:25.483Z,98773.73
2018-04-10T02:46:53.014Z,98766.21
2018-04-10T02:49:20.531Z,98769.44
2018-04-10T02:51:48.099Z,98771.84
2018-04-10T02:54:15.645Z,98778.81
2018-04-10T02:56:43.201Z,98776.14
2018-04-10T02:59:10.698Z,98782.04
2018-04-10T03:01:38.230Z,98783.54
2018-04-10T03:04:05.733Z,98785.72
2018-04-10T03:06:33.261Z,98782.48
2018-04-10T03:09:00.852Z,98782.18
2018-04-10T03:11:28.417Z,98787.34
2018-04-10T03:13:55.921Z,98787.66
2018-04-10T03:16:23.510Z,98787.59
2018-04-10T03:18:51.114Z,98788.92
2018-04-10T03:21:18.628Z,98786.41
2018-04-10T03:23:46.114Z,98789.50
2018-04-10T03:26:13.629Z,98790.62
2018-04-10T03:28:41.117Z,98792.20
2018-04-10T03:31:08.638Z,98797.30
2018-04-10T03:33:36.177Z,98801.78
2018-04-10T03:36:03.681Z,98798.75
2018-04-10T03:38:31.235Z,98799.63
2018-04-10T03:40:58.781Z,98806.89
2018-04-10T03:43:26.283Z,98803.36
2018-04-10T03:45:53.861Z,98801.76
2018-04-10T03:48:21.397Z,98803.58
2018-04-10T03:50:48.970Z,98800.22
2018-04-10T03:53:16.518Z,98803.29
2018-04-10T03:55:44.072Z,98802.03
2018-04-10T03:58:11.599Z,98793.23
2018-04-10T04:00:39.076Z,98788.02
2018-04-10T04:03:06.927Z,98795.53
2018-04-10T04:05:34.422Z,98799.16
2018-04-10T04:08:01.934Z,98797.22
2018-04-10T04:10:29.429Z,98792.62
2018-04-10T04:12:56.925Z,98797.03
2018-04-10T04:15:24.447Z,98797.48
2018-04-10T04:17:52.029Z,98801.48
2018-04-10T04:20:31.257Z,98793.91
2018-04-10T04:22:58.794Z,98797.18
2018-04-10T04:25:26.388Z,98800.13
2018-04-10T04:27:53.925Z,98800.12
2018-04-10T04:30:21.438Z,98797.30
2018-04-10T04:32:48.965Z,98793.77
2018-04-10T04:35:16.552Z,98796.77
2018-04-10T04:37:44.078Z,98803.48
2018-04-10T04:40:11.580Z,98796.91
2018-04-10T04:42:39.192Z,98802.09
2018-04-10T04:45:06.778Z,98794.53
2018-04-10T04:47:34.309Z,98789.75
2018-04-10T04:50:01.843Z,98797.76
2018-04-10T04:52:29.322Z,98797.53
2018-04-10T04:54:57.066Z,98791.23
2018-04-10T04:57:24.569Z,98797.69
2018-04-10T04:59:52.062Z,98794.03
2018-04-10T05:02:19.629Z,98792.68
2018-04-10T05:04:47.173Z,98791.94
2018-04-10T05:07:14.860Z,98785.90
2018-04-10T05:09:42.383Z,98793.07
2018-04-10T05:12:09.982Z,98787.30
2018-04-10T05:14:37.501Z,98790.59
2018-04-10T05:17:05.009Z,98797.83
2018-04-10T05:19:32.512Z,98801.25
2018-04-10T05:24:32.788Z,98818.41
2018-04-10T05:27:00.284Z,98823.39
2018-04-10T05:29:27.882Z,98816.88
2018-04-10T05:31:55.488Z,98815.05
2018-04-10T05:34:23.019Z,98815.59
2018-04-10T05:36:50.526Z,98812.63
2018-04-10T05:39:18.061Z,98809.98
2018-04-10T05:41:45.663Z,98808.48
2018-04-10T05:44:13.212Z,98813.40
2018-04-10T05:46:40.723Z,98825.25
2018-04-10T05:49:08.283Z,98818.52
2018-04-10T05:51:35.893Z,98827.12
2018-04-10T05:54:03.506Z,98837.15
2018-04-10T05:56:31.015Z,98840.66
2018-04-10T05:58:59.310Z,98839.37
2018-04-10T06:01:26.832Z,98840.21
2018-04-10T06:03:54.379Z,98835.99
2018-04-10T06:06:21.958Z,98842.40
2018-04-10T06:08:49.578Z,98838.49
2018-04-10T06:11:17.122Z,98844.52
2018-04-10T06:13:44.682Z,98850.53
2018-04-10T06:16:12.268Z,98860.21
2018-04-10T06:18:39.802Z,98852.86
2018-04-10T06:21:07.335Z,98860.31
2018-04-10T06:23:34.946Z,98863.95
2018-04-10T06:26:02.477Z,98862.00
2018-04-10T06:28:30.087Z,98864.83
2018-04-10T06:30:57.639Z,98865.02
2018-04-10T06:33:25.193Z,98875.55
2018-04-10T06:35:52.772Z,98879.75
2018-04-10T06:38:20.283Z,98881.84
2018-04-10T06:40:47.828Z,98888.86
2018-04-10T06:43:15.369Z,98894.16
2018-04-10T06:45:42.889Z,98898.55
2018-04-10T06:48:10.382Z,98901.20
2018-04-10T06:50:37.911Z,98904.34
2018-04-10T06:53:05.427Z,98906.84
2018-04-10T06:55:32.924Z,98908.51
2018-04-10T06:58:00.547Z,98907.17
2018-04-10T07:00:29.986Z,98908.72
2018-04-10T07:02:57.600Z,98908.96
2018-04-10T07:05:25.823Z,98904.75
2018-04-10T07:07:53.468Z,98905.62
2018-04-10T07:10:20.991Z,98908.83
2018-04-10T07:12:48.469Z,98909.25
2018-04-10T07:15:15.964Z,98911.66
2018-04-10T07:17:43.478Z,98907.47
2018-04-10T07:20:11.042Z,98915.17
2018-04-10T07:22:38.535Z,98917.48
2018-04-10T07:25:06.125Z,98912.14
2018-04-10T07:27:33.634Z,98915.27
2018-04-10T07:30:01.193Z,98916.78
2018-04-10T07:32:28.777Z,98920.74
2018-04-10T07:34:56.366Z,98916.05
2018-04-10T07:37:23.860Z,98919.39
2018-04-10T07:39:51.377Z,98923.78
2018-04-10T07:42:18.893Z,98916.48
2018-04-10T07:44:46.597Z,98914.14
2018-04-10T07:47:14.157Z,98917.33
2018-04-10T07:49:41.646Z,98917.20
2018-04-10T07:52:09.157Z,98928.61
2018-04-10T07:54:37.247Z,98924.25
2018-04-10T07:57:06.284Z,98922.51
2018-04-10T07:59:33.759Z,98921.16
2018-04-10T08:02:01.269Z,98925.59
2018-04-10T08:04:28.781Z,98929.23
2018-04-10T08:06:56.360Z,98932.08
2018-04-10T08:09:23.914Z,98941.76
2018-04-10T08:11:51.442Z,98947.08
2018-04-10T08:14:18.944Z,98949.89
2018-04-10T08:16:46.489Z,98958.78
2018-04-10T08:19:14.081Z,98955.00
2018-04-10T08:21:41.594Z,98960.22
2018-04-10T08:24:09.098Z,98962.88
2018-04-10T08:26:36.730Z,98955.70
2018-04-10T08:29:04.230Z,98961.37
2018-04-10T08:31:31.736Z,98966.80
2018-04-10T08:33:59.257Z,98962.55
2018-04-10T08:36:26.869Z,98962.47
2018-04-10T08:38:54.383Z,98967.66
2018-04-10T08:41:21.914Z,98972.64
2018-04-10T08:43:49.470Z,98965.61
2018-04-10T08:46:17.033Z,98965.68
2018-04-10T08:48:44.529Z,98971.63
2018-04-10T08:51:12.064Z,98974.36
2018-04-10T08:53:39.590Z,98977.81
2018-04-10T08:56:07.093Z,98977.88
2018-04-10T08:58:34.642Z,98975.20
2018-04-10T09:01:02.254Z,98984.05
2018-04-10T09:03:29.746Z,98991.51
2018-04-10T09:05:57.242Z,98990.30
2018-04-10T09:08:24.842Z,98987.91
2018-04-10T09:10:52.428Z,98987.42
2018-04-10T09:13:19.938Z,98980.09
2018-04-10T09:15:47.417Z,98990.08
2018-04-10T09:18:14.918Z,98986.73
2018-04-10T09:20:42.417Z,98990.40
2018-04-10T09:23:09.933Z,98986.92
2018-04-10T09:25:37.466Z,98985.55
2018-04-10T09:28:05.866Z,98980.73
2018-04-10T09:30:33.429Z,98981.23
2018-04-10T09:33:00.940Z,98977.77
2018-04-10T09:35:28.433Z,98974.61
2018-04-10T09:37:55.952Z,98974.73
2018-04-10T09:40:23.588Z,98969.52
2018-04-10T09:42:51.173Z,98971.42
2018-04-10T09:45:18.662Z,98968.34
2018-04-10T09:47:46.198Z,98975.00
2018-04-10T09:50:13.721Z,98971.66
2018-04-10T09:52:41.234Z,98975.89
2018-04-10T09:55:08.763Z,98974.48
2018-04-10T09:57:36.261Z,98983.51
2018-04-10T10:00:03.835Z,98991.55
2018-04-10T10:02:31.330Z,98991.03
2018-04-10T10:04:58.810Z,98987.63
2018-04-10T10:07:26.381Z,98996.79
2018-04-10T10:09:53.870Z,98994.28
2018-04-10T10:12:21.447Z,98992.93
2018-04-10T10:14:49.086Z,98994.20
2018-04-10T10:17:16.618Z,98997.95
2018-04-10T10:19:44.116Z,98989.18
2018-04-10T10:22:11.625Z,98996.73
2018-04-10T10:24:39.247Z,98994.41
2018-04-10T10:27:06.886Z,98997.47
2018-04-10T10:29:34.394Z,98995.16
2018-04-10T10:32:01.961Z,99010.44
2018-04-10T10:34:29.489Z,99005.13
2018-04-10T10:36:56.981Z,99006.26
2018-04-10T10:39:24.550Z,99006.20
2018-04-10T10:41:52.062Z,98997.81
2018-04-10T10:44:19.649Z,98997.92
2018-04-10T10:46:47.139Z,99003.13
2018-04-10T10:49:14.667Z,98996.27
2018-04-10T10:51:42.267Z,98998.20
2018-04-10T10:54:09.770Z,98997.02
2018-04-10T10:56:37.480Z,98994.58
2018-04-10T10:59:05.116Z,98992.56
2018-04-10T11:01:32.617Z,98995.98
2018-04-10T11:04:00.139Z,98997.59
2018-04-10T11:06:27.639Z,98995.18
2018-04-10T11:08:55.192Z,98996.69
2018-04-10T11:11:23.837Z,98990.12
2018-04-10T11:13:51.363Z,98986.40
2018-04-10T11:16:18.946Z,98986.98
2018-04-10T11:18:46.490Z,98985.19
2018-04-10T11:21:14.734Z,98983.55
2018-04-10T11:23:42.369Z,98972.70
2018-04-10T11:26:09.882Z,98975.44
2018-04-10T11:28:37.383Z,98974.02
2018-04-10T11:31:04.874Z,98972.23
2018-04-10T11:33:32.406Z,98964.55
2018-04-10T11:35:59.909Z,98967.05
2018-04-10T11:38:27.518Z,98969.34
2018-04-10T11:40:55.026Z,98964.59
2018-04-10T11:43:23.784Z,98961.71
2018-04-10T11:45:51.261Z,98963.45
2018-04-10T11:48:18.782Z,98947.22
2018-04-10T11:50:46.298Z,98947.32
2018-04-10T11:53:13.813Z,98947.32
2018-04-10T11:55:41.462Z,98948.38
2018-04-10T11:58:09.000Z,98949.11
2018-04-10T12:00:36.539Z,98949.76
2018-04-10T12:03:04.028Z,98953.42
2018-04-10T12:05:32.428Z,98950.38
2018-04-10T12:07:59.938Z,98949.22
2018-04-10T12:10:27.566Z,98948.81
2018-04-10T12:12:55.104Z,98944.34
2018-04-10T12:15:22.755Z,98948.18
2018-04-10T12:17:50.257Z,98946.48
2018-04-10T12:20:18.444Z,98952.34
2018-04-10T12:22:46.000Z,98940.87
2018-04-10T12:25:13.599Z,98945.46
2018-04-10T12:27:41.243Z,98945.24
2018-04-10T12:30:08.848Z,98939.36
2018-04-10T12:32:36.335Z,98944.80
2018-04-10T12:35:03.863Z,98943.50
2018-04-10T12:37:31.337Z,98937.09
2018-04-10T12:39:58.866Z,98940.67
2018-04-10T12:42:26.354Z,98935.28
2018-04-10T12:44:53.879Z,98929.95
2018-04-10T12:47:21.394Z,98932.41
2018-04-10T12:49:48.913Z,98930.24
2018-04-10T12:52:16.377Z,98923.98
2018-04-10T12:54:43.884Z,98923.73
2018-04-10T12:57:11.518Z,98915.96
2018-04-10T12:59:39.057Z,98912.45
2018-04-10T13:02:06.549Z,98914.42
2018-04-10T13:04:34.068Z,98918.44
2018-04-10T13:07:01.568Z,98923.20
2018-04-10T13:09:29.078Z,98920.80
2018-04-10T13:11:56.696Z,98918.55
2018-04-10T13:14:24.197Z,98915.94
2018-04-10T13:16:51.691Z,98920.31
2018-04-10T13:19:19.192Z,98915.52
2018-04-10T13:21:47.079Z,98910.34
2018-04-10T13:24:14.622Z,98908.55
2018-04-10T13:26:42.359Z,98902.80
2018-04-10T13:29:09.847Z,98905.16
2018-04-10T13:31:37.446Z,98906.00
2018-04-10T13:34:06.082Z,98904.42
2018-04-10T13:36:33.629Z,98900.16
2018-04-10T13:39:01.122Z,98904.91
2018-04-10T13:41:29.007Z,98909.63
2018-04-10T13:43:56.507Z,98902.02
2018-04-10T13:46:24.358Z,98903.24
2018-04-10T13:48:51.850Z,98905.80
2018-04-10T13:51:19.570Z,98893.34
2018-04-10T13:53:47.232Z,98895.27
2018-04-10T13:56:14.787Z,98891.71
2018-04-10T13:58:42.295Z,98882.06
2018-04-10T14:01:09.950Z,98881.58
2018-04-10T14:03:38.470Z,98883.44
2018-04-10T14:06:06.257Z,98881.57
2018-04-10T14:11:05.743Z,98882.00
2018-04-10T14:13:33.293Z,98877.42
2018-04-10T14:16:00.806Z,98872.64
2018-04-10T14:18:28.345Z,98864.09
2018-04-10T14:20:55.877Z,98864.44
2018-04-10T14:23:23.375Z,98865.58
2018-04-10T14:25:50.897Z,98858.06
2018-04-10T14:28:18.608Z,98865.66
2018-04-10T14:30:46.114Z,98858.63
2018-04-10T14:33:13.836Z,98855.27
2018-04-10T14:35:41.363Z,98853.51
2018-04-10T14:38:08.875Z,98850.30
2018-04-10T14:40:37.388Z,98848.80
2018-04-10T14:43:05.058Z,98849.77
2018-04-10T14:45:32.627Z,98848.27
2018-04-10T14:48:00.172Z,98849.17
2018-04-10T14:50:28.360Z,98844.08
2018-04-10T14:52:55.952Z,98847.55
2018-04-10T14:55:24.555Z,98848.33
2018-04-10T14:57:52.053Z,98847.11
2018-04-10T15:00:19.602Z,98841.34
2018-04-10T15:02:47.159Z,98838.39
2018-04-10T15:05:14.688Z,98841.05
2018-04-10T15:07:42.222Z,98845.52
2018-04-10T15:10:09.749Z,98834.00
2018-04-10T15:12:38.318Z,98840.17
2018-04-10T15:15:05.843Z,98837.44
2018-04-10T15:17:33.367Z,98838.83
2018-04-10T15:20:00.870Z,98847.55
2018-04-10T15:22:28.381Z,98841.92
2018-04-10T15:24:56.819Z,98840.81
2018-04-10T15:27:24.322Z,98843.81
2018-04-10T15:29:51.906Z,98844.58
2018-04-10T15:32:19.420Z,98838.70
2018-04-10T15:34:46.906Z,98835.78
2018-04-10T15:37:14.417Z,98833.61
2018-04-10T15:39:41.917Z,98831.61
2018-04-10T15:42:09.483Z,98822.84
2018-04-10T15:44:37.023Z,98823.91
2018-04-10T15:47:04.634Z,98819.52
2018-04-10T15:49:32.129Z,98809.81
2018-04-10T15:51:59.641Z,98811.33
2018-04-10T15:54:27.126Z,98811.84
2018-04-10T15:56:54.684Z,98807.56
2018-04-10T15:59:23.275Z,98811.17
2018-04-10T16:01:50.789Z,98813.09
2018-04-10T16:04:22.510Z,98810.31
2018-04-10T16:06:50.011Z,98805.64
2018-04-10T16:09:17.495Z,98798.61
2018-04-10T16:11:45.026Z,98804.14
2018-04-10T16:14:12.525Z,98818.70
2018-04-10T16:16:40.040Z,98826.20
2018-04-10T16:19:07.524Z,98836.47
2018-04-10T16:21:35.025Z,98852.64
2018-04-10T16:24:02.722Z,98856.20
2018-04-10T16:26:30.205Z,98858.66
2018-04-10T16:28:57.811Z,98856.00
2018-04-10T16:31:26.049Z,98857.97
2018-04-10T16:33:53.543Z,98853.53
2018-04-10T16:36:21.035Z,98859.80
2018-04-10T16:38:48.557Z,98851.36
2018-04-10T16:41:16.069Z,98838.45
2018-04-10T16:43:43.590Z,98817.63
2018-04-10T16:46:11.066Z,98819.55
2018-04-10T16:48:38.626Z,98840.75
2018-04-10T16:51:06.126Z,98877.03
2018-04-10T16:53:33.711Z,98892.12
2018-04-10T16:56:01.328Z,98891.52
2018-04-10T16:58:28.857Z,98878.30
2018-04-10T17:00:56.775Z,98866.72
2018-04-10T17:03:24.297Z,98861.52
2018-04-10T17:05:51.787Z,98854.91
2018-04-10T17:08:19.276Z,98850.69
2018-04-10T17:10:46.760Z,98850.97
2018-04-10T17:13:14.570Z,98849.75
2018-04-10T17:15:42.074Z,98853.19
2018-04-10T17:18:09.689Z,98859.94
2018-04-10T17:20:37.194Z,98860.71
2018-04-10T17:23:05.719Z,98858.63
2018-04-10T17:25:33.652Z,98858.09
2018-04-10T17:28:01.181Z,98867.44
2018-04-10T17:30:29.730Z,98879.22
2018-04-10T17:32:57.258Z,98874.84
2018-04-10T17:37:56.837Z,98878.83
2018-04-10T17:40:25.057Z,98886.14
2018-04-10T17:42:52.557Z,98891.42
2018-04-10T17:45:20.046Z,98883.17
2018-04-10T17:47:47.561Z,98882.52
2018-04-10T17:50:15.055Z,98882.72
2018-04-10T17:52:42.550Z,98876.30
2018-04-10T17:55:14.541Z,98872.59
2018-04-10T17:57:42.050Z,98876.33
2018-04-10T18:00:09.538Z,98876.24
2018-04-10T18:02:37.346Z,98870.79
2018-04-10T18:05:04.979Z,98868.91
2018-04-10T18:07:37.597Z,98870.91
2018-04-10T18:10:05.099Z,98869.13
2018-04-10T18:12:32.621Z,98884.31
2018-04-10T18:15:00.145Z,98881.30
2018-04-10T18:17:27.634Z,98872.01
2018-04-10T18:19:55.193Z,98874.13
2018-04-10T18:22:22.677Z,98868.92
2018-04-10T18:24:50.238Z,98879.80
2018-04-10T18:27:17.728Z,98887.30
2018-04-10T18:29:46.093Z,98894.55
2018-04-10T18:32:13.601Z,98916.41
2018-04-10T18:34:41.112Z,98922.70
2018-04-10T18:37:08.637Z,98932.33
2018-04-10T18:39:36.185Z,98933.86
2018-04-10T18:42:03.682Z,98951.28
2018-04-10T18:44:31.202Z,98961.22
2018-04-10T18:46:58.762Z,98959.95
2018-04-10T18:49:26.287Z,98952.05
2018-04-10T18:51:53.778Z,98963.63
2018-04-10T18:54:21.305Z,98965.66
2018-04-10T18:56:48.806Z,98968.53
2018-04-10T18:59:16.373Z,98973.80
2018-04-10T19:01:43.931Z,98976.25
2018-04-10T19:04:11.450Z,98979.84
2018-04-10T19:06:39.015Z,98984.53
2018-04-10T19:09:06.517Z,98988.51
2018-04-10T19:11:34.023Z,98990.26
2018-04-10T19:14:01.562Z,98999.68
2018-04-10T19:16:29.149Z,99001.28
2018-04-10T19:18:56.741Z,99007.77
2018-04-10T19:21:24.279Z,99010.08
2018-04-10T19:23:51.904Z,99020.38
2018-04-10T19:26:19.477Z,99028.32
2018-04-10T19:28:47.172Z,99037.33
2018-04-10T19:31:14.759Z,99055.66
2018-04-10T19:33:42.318Z,99060.95
2018-04-10T19:36:09.863Z,99074.41
2018-04-10T19:38:37.389Z,99075.04
2018-04-10T19:41:04.960Z,99083.44
2018-04-10T19:43:32.545Z,99079.14
2018-04-10T19:46:00.121Z,99087.13
2018-04-10T19:48:27.649Z,99085.52
2018-04-10T19:50:55.214Z,99086.05
2018-04-10T19:53:22.704Z,99077.78
2018-04-10T19:55:50.267Z,99067.73
2018-04-10T19:58:17.819Z,99056.47
2018-04-10T20:00:45.380Z,99049.64
2018-04-10T20:03:12.939Z,99042.39
2018-04-10T20:05:41.306Z,99050.23
2018-04-10T20:08:08.842Z,99042.50
2018-04-10T20:10:36.440Z,99034.92
2018-04-10T20:13:04.001Z,99026.52
2018-04-10T20:15:31.555Z,99026.34
2018-04-10T20:17:59.082Z,99036.21
2018-04-10T20:20:30.464Z,99055.84
2018-04-10T20:22:58.044Z,99061.69
2018-04-10T20:25:25.608Z,99071.81
2018-04-10T20:27:53.142Z,99079.54
2018-04-10T20:30:20.724Z,99088.17
2018-04-10T20:32:48.332Z,99089.03
2018-04-10T20:35:15.881Z,99093.97
2018-04-10T20:37:43.433Z,99086.44
2018-04-10T20:40:11.003Z,99085.24
2018-04-10T20:42:38.635Z,99082.28
2018-04-10T20:45:06.211Z,99084.89
2018-04-10T20:47:33.739Z,99093.86
2018-04-10T20:50:01.355Z,99095.75
2018-04-10T20:52:28.889Z,99097.22
2018-04-10T20:54:56.453Z,99100.93
2018-04-10T20:57:24.003Z,99100.19
2018-04-10T20:59:51.503Z,99096.41
2018-04-10T21:02:19.086Z,99092.63
2018-04-10T21:04:46.685Z,99089.28
2018-04-10T21:07:14.253Z,99083.03
2018-04-10T21:09:41.888Z,99074.05
2018-04-10T21:12:09.454Z,99079.09
2018-04-10T21:14:36.971Z,99084.30
2018-04-10T21:17:05.406Z,99086.63
2018-04-10T21:19:32.959Z,99090.35
2018-04-10T21:22:00.504Z,99087.08
2018-04-10T21:24:28.215Z,99084.37
2018-04-10T21:26:55.778Z,99087.83
2018-04-10T21:29:23.297Z,99088.17
2018-04-10T21:31:50.834Z,99082.88
2018-04-10T21:34:18.380Z,99079.73
2018-04-10T21:36:46.028Z,99080.57
2018-04-10T21:39:14.614Z,99082.45
2018-04-10T21:41:52.284Z,99076.77
2018-04-10T21:44:19.868Z,99076.41
2018-04-10T21:46:47.386Z,99071.31
2018-04-10T21:49:14.989Z,99074.67
2018-04-10T21:51:42.560Z,99083.36
2018-04-10T21:54:10.078Z,99088.53
2018-04-10T21:56:37.614Z,99102.14
2018-04-10T21:59:05.194Z,99107.63
2018-04-10T22:01:32.709Z,99111.91
2018-04-10T22:04:00.266Z,99119.52
2018-04-10T22:06:27.815Z,99112.98
2018-04-10T22:08:55.393Z,99102.98
2018-04-10T22:11:22.954Z,99100.88
2018-04-10T22:13:50.480Z,99092.69
2018-04-10T22:16:18.021Z,99092.84
2018-04-10T22:18:45.611Z,99092.94
2018-04-10T22:21:13.170Z,99084.78
2018-04-10T22:23:40.708Z,99079.22
2018-04-10T22:26:08.294Z,99072.22
2018-04-10T22:28:35.847Z,99068.08
2018-04-10T22:31:03.413Z,99066.48
2018-04-10T22:33:30.956Z,99058.08
2018-04-10T22:35:58.529Z,99058.42
2018-04-10T22:38:26.096Z,99047.05
2018-04-10T22:40:53.686Z,99049.00
2018-04-10T22:43:21.265Z,99042.50
2018-04-10T22:45:48.802Z,99044.49
2018-04-10T22:48:16.394Z,99047.20
2018-04-10T22:50:43.914Z,99045.06
2018-04-10T22:53:11.454Z,99044.69
2018-04-10T22:55:39.000Z,99036.74
2018-04-10T22:58:06.560Z,99033.05
2018-04-10T23:00:49.869Z,99031.11
2018-04-10T23:03:17.445Z,99034.93
2018-04-10T23:05:44.967Z,99023.57
2018-04-10T23:08:12.523Z,99024.97
2018-04-10T23:10:40.050Z,99028.81
2018-04-10T23:13:07.695Z,99033.31
2018-04-10T23:15:35.363Z,99029.80
2018-04-10T23:18:02.923Z,99030.75
2018-04-10T23:20:30.494Z,99030.18
2018-04-10T23:22:58.027Z,99029.77
2018-04-10T23:25:25.675Z,99039.36
2018-04-10T23:27:53.528Z,99052.78
2018-04-10T23:30:21.195Z,99066.29
2018-04-10T23:32:48.723Z,99070.73
2018-04-10T23:35:16.286Z,99066.81
2018-04-10T23:37:44.295Z,99071.76
2018-04-10T23:40:11.843Z,99072.28
2018-04-10T23:42:39.495Z,99064.70
2018-04-10T23:45:07.053Z,99074.31
2018-04-10T23:47:34.606Z,99080.98
2018-04-10T23:50:02.122Z,99082.35
2018-04-10T23:52:29.810Z,99094.78
2018-04-10T23:54:57.726Z,99106.80
2018-04-10T23:57:26.131Z,99114.55
2018-04-10T23:59:53.644Z,99119.67
